Time;durP1;ratioP1;P1;durP2;ratioP2;P2;SDS_P1;SDS_P2;PMS_P1;PMS_P2;Temp;Humidity;BMP_temperature;BMP_pressure;BME280_temperature;BME280_humidity;BME280_pressure;Samples;Min_cycle;Max_cycle;Signal;HPM_P1;HPM_P2
2021/08/14 00:00:40;;;;;;;5.60;5.13;;;25.00;99.90;;;;;;5093882;28;20543;-82
2021/08/14 00:03:08;;;;;;;6.37;5.77;;;24.90;99.90;;;;;;5074463;28;20489;-81
2021/08/14 00:05:38;;;;;;;7.47;5.00;;;24.90;99.90;;;;;;5094625;28;20755;-81
2021/08/14 00:08:06;;;;;;;6.10;4.40;;;24.80;99.90;;;;;;5093053;28;20968;-81
2021/08/14 00:10:34;;;;;;;7.47;5.63;;;24.80;99.90;;;;;;5094015;28;20808;-82
2021/08/14 00:13:03;;;;;;;9.47;5.33;;;24.80;99.90;;;;;;5073807;28;20466;-81
2021/08/14 00:15:31;;;;;;;6.93;5.87;;;24.80;99.90;;;;;;5094545;28;20501;-81
2021/08/14 00:17:59;;;;;;;5.10;4.60;;;24.70;99.90;;;;;;5093536;28;20446;-81
2021/08/14 00:20:27;;;;;;;10.30;5.30;;;24.70;99.90;;;;;;5094333;28;20518;-82
2021/08/14 00:22:59;;;;;;;6.20;5.27;;;24.70;99.90;;;;;;5073857;28;20587;-81
2021/08/14 00:25:28;;;;;;;6.90;5.60;;;24.70;99.90;;;;;;5094933;28;20445;-80
2021/08/14 00:27:56;;;;;;;7.43;5.70;;;24.60;99.90;;;;;;5092773;28;20450;-81
2021/08/14 00:30:24;;;;;;;7.53;5.57;;;24.60;99.90;;;;;;5094496;28;20515;-80
2021/08/14 00:32:52;;;;;;;6.60;6.00;;;24.60;99.90;;;;;;5093673;28;21054;-80
2021/08/14 00:35:21;;;;;;;6.93;5.50;;;24.50;99.90;;;;;;5093416;28;20473;-81
2021/08/14 00:37:49;;;;;;;7.90;5.33;;;24.50;99.90;;;;;;5093061;28;20511;-81
2021/08/14 00:40:19;;;;;;;6.23;4.70;;;24.50;99.90;;;;;;5092551;28;20510;-80
2021/08/14 00:42:47;;;;;;;5.37;4.83;;;24.50;99.90;;;;;;5093621;28;20462;-81
2021/08/14 00:45:16;;;;;;;6.43;5.70;;;24.40;99.90;;;;;;5091944;28;21067;-80
2021/08/14 00:47:45;;;;;;;5.67;5.17;;;24.50;99.90;;;;;;5092301;28;21007;-81
2021/08/14 00:50:13;;;;;;;6.40;5.07;;;24.40;99.90;;;;;;5092473;28;20431;-81
2021/08/14 00:52:41;;;;;;;6.70;4.30;;;24.40;99.90;;;;;;5092539;28;20458;-81
2021/08/14 00:55:10;;;;;;;5.60;4.90;;;24.30;99.90;;;;;;5092048;28;20463;-82
2021/08/14 00:57:41;;;;;;;6.23;5.37;;;24.30;99.90;;;;;;5091510;28;20433;-81
2021/08/14 01:00:10;;;;;;;5.90;5.40;;;24.30;99.90;;;;;;5091480;28;20434;-82
2021/08/14 01:02:38;;;;;;;5.20;4.80;;;24.30;99.90;;;;;;5073733;28;20462;-81
2021/08/14 01:05:08;;;;;;;5.90;5.33;;;24.20;99.90;;;;;;5090936;28;20889;-81
2021/08/14 01:07:36;;;;;;;6.70;4.80;;;24.20;99.90;;;;;;5091706;28;20440;-81
2021/08/14 01:10:05;;;;;;;8.23;5.23;;;24.20;99.90;;;;;;5091136;28;20514;-82
2021/08/14 01:12:33;;;;;;;7.00;5.50;;;24.20;99.90;;;;;;5072654;28;21037;-81
2021/08/14 01:15:05;;;;;;;6.27;5.17;;;24.10;99.90;;;;;;5091505;28;20487;-81
2021/08/14 01:17:34;;;;;;;6.40;5.73;;;24.10;99.90;;;;;;5073983;28;20969;-81
2021/08/14 01:20:03;;;;;;;5.17;4.67;;;24.10;99.90;;;;;;5073385;28;20430;-81
2021/08/14 01:22:31;;;;;;;6.90;5.93;;;24.10;99.90;;;;;;5073702;28;20454;-81
2021/08/14 01:24:59;;;;;;;7.37;5.40;;;24.10;99.90;;;;;;5091724;28;20903;-81
2021/08/14 01:27:29;;;;;;;7.50;5.47;;;24.10;99.90;;;;;;5091718;28;20516;-81
2021/08/14 01:29:57;;;;;;;5.63;5.13;;;24.10;99.90;;;;;;5072625;28;20984;-81
2021/08/14 01:32:25;;;;;;;4.60;4.10;;;24.00;99.90;;;;;;5092061;28;20479;-81
2021/08/14 01:34:54;;;;;;;6.17;5.07;;;24.00;99.90;;;;;;5091808;28;20434;-81
2021/08/14 01:37:22;;;;;;;5.87;4.90;;;24.00;99.90;;;;;;5092133;28;20941;-81
2021/08/14 01:39:50;;;;;;;6.67;6.03;;;24.00;99.90;;;;;;5090839;28;20459;-81
2021/08/14 01:42:18;;;;;;;5.50;4.63;;;24.00;99.90;;;;;;5092369;28;20519;-81
2021/08/14 01:44:47;;;;;;;5.83;5.33;;;23.90;99.90;;;;;;5088250;28;20524;-81
2021/08/14 01:47:15;;;;;;;7.37;5.60;;;23.90;99.90;;;;;;5071928;28;20481;-81
2021/08/14 01:49:43;;;;;;;5.73;5.23;;;23.90;99.90;;;;;;5063178;28;20462;-81
2021/08/14 01:52:13;;;;;;;6.30;5.70;;;23.90;99.90;;;;;;5091498;28;20470;-81
2021/08/14 01:54:42;;;;;;;5.87;5.20;;;23.80;99.90;;;;;;5090521;28;20503;-81
2021/08/14 01:57:11;;;;;;;5.43;4.77;;;23.80;99.90;;;;;;5073816;28;20479;-81
2021/08/14 01:59:40;;;;;;;5.63;4.93;;;23.70;99.90;;;;;;5095123;28;20437;-81
2021/08/14 02:02:10;;;;;;;5.30;4.90;;;23.80;99.90;;;;;;5096201;28;20553;-81
2021/08/14 02:04:38;;;;;;;9.53;6.07;;;23.70;99.90;;;;;;5076557;28;20560;-82
2021/08/14 02:07:07;;;;;;;5.50;5.07;;;23.70;99.90;;;;;;5077233;28;20460;-81
2021/08/14 02:09:35;;;;;;;8.10;5.97;;;23.70;99.90;;;;;;5075225;28;20450;-82
2021/08/14 02:12:03;;;;;;;5.47;4.97;;;23.70;99.90;;;;;;5079508;28;20515;-80
2021/08/14 02:14:31;;;;;;;6.20;5.47;;;23.70;99.90;;;;;;5094431;28;20442;-81
2021/08/14 02:17:00;;;;;;;6.47;5.80;;;23.60;99.90;;;;;;5095622;28;20494;-80
2021/08/14 02:19:29;;;;;;;8.23;5.40;;;23.60;99.90;;;;;;5093723;28;20445;-81
2021/08/14 02:21:57;;;;;;;5.83;4.77;;;23.50;99.90;;;;;;5096090;28;20824;-80
2021/08/14 02:24:25;;;;;;;5.53;4.60;;;23.60;99.90;;;;;;5094275;28;20565;-81
2021/08/14 02:26:53;;;;;;;5.27;4.77;;;23.60;99.90;;;;;;5095426;28;21005;-81
2021/08/14 02:29:21;;;;;;;6.60;5.90;;;23.60;99.90;;;;;;5093406;28;20426;-81
2021/08/14 02:31:51;;;;;;;6.37;5.50;;;23.50;99.90;;;;;;5095565;28;20472;-81
2021/08/14 02:34:19;;;;;;;7.30;6.07;;;23.50;99.90;;;;;;5095230;28;20441;-80
2021/08/14 02:36:48;;;;;;;6.60;5.40;;;23.50;99.90;;;;;;5095506;28;20883;-81
2021/08/14 02:39:16;;;;;;;13.13;5.87;;;23.50;99.90;;;;;;5094074;28;20436;-80
2021/08/14 02:41:45;;;;;;;7.00;5.67;;;23.50;99.90;;;;;;5076798;28;21039;-81
2021/08/14 02:44:13;;;;;;;7.90;5.30;;;23.40;99.90;;;;;;5093748;28;20465;-81
2021/08/14 02:46:41;;;;;;;6.73;6.13;;;23.40;99.90;;;;;;5075498;28;20456;-80
2021/08/14 02:49:09;;;;;;;6.57;5.83;;;23.40;99.90;;;;;;5073510;28;20453;-80
2021/08/14 02:51:37;;;;;;;7.10;5.90;;;23.40;99.90;;;;;;5074245;28;20461;-81
2021/08/14 02:54:07;;;;;;;7.57;5.50;;;23.30;99.90;;;;;;5073465;28;20434;-81
2021/08/14 02:56:35;;;;;;;6.10;4.70;;;23.30;99.90;;;;;;5075920;28;20520;-81
2021/08/14 02:59:03;;;;;;;5.93;5.20;;;23.30;99.90;;;;;;5092965;28;20438;-81
2021/08/14 03:01:32;;;;;;;6.57;5.37;;;23.30;99.90;;;;;;5093321;28;20452;-80
2021/08/14 03:04:00;;;;;;;6.90;6.03;;;23.30;99.90;;;;;;5093350;28;20473;-81
2021/08/14 03:06:29;;;;;;;5.30;4.90;;;23.30;99.90;;;;;;5075259;28;20452;-81
2021/08/14 03:08:57;;;;;;;5.80;5.23;;;23.30;99.90;;;;;;5092887;28;20452;-81
2021/08/14 03:11:27;;;;;;;7.57;5.67;;;23.30;99.90;;;;;;5092002;28;20510;-81
2021/08/14 03:13:55;;;;;;;5.50;4.87;;;23.30;99.90;;;;;;5093713;28;20448;-81
2021/08/14 03:16:23;;;;;;;6.93;5.93;;;23.30;99.90;;;;;;5093708;28;20457;-81
2021/08/14 03:18:51;;;;;;;6.20;5.60;;;23.20;99.90;;;;;;5094093;28;20522;-81
2021/08/14 03:21:19;;;;;;;6.17;5.67;;;23.20;99.90;;;;;;5092818;28;20456;-81
2021/08/14 03:23:47;;;;;;;5.77;4.80;;;23.20;99.90;;;;;;5093807;28;20449;-81
2021/08/14 03:26:16;;;;;;;5.53;5.03;;;23.10;99.90;;;;;;5093052;28;20478;-81
2021/08/14 03:28:45;;;;;;;6.50;5.90;;;23.10;99.90;;;;;;5093516;28;20541;-81
2021/08/14 03:31:13;;;;;;;7.27;5.37;;;23.10;99.90;;;;;;5092922;28;20444;-81
2021/08/14 03:33:41;;;;;;;6.00;5.50;;;23.10;99.90;;;;;;5093668;28;20552;-81
2021/08/14 03:36:09;;;;;;;6.40;5.50;;;23.10;99.90;;;;;;5092943;28;20445;-81
2021/08/14 03:38:37;;;;;;;5.63;5.13;;;23.10;99.90;;;;;;5092938;28;20446;-80
2021/08/14 03:41:07;;;;;;;7.43;5.77;;;23.00;99.90;;;;;;5074708;28;21195;-81
2021/08/14 03:43:35;;;;;;;5.83;5.23;;;23.00;99.90;;;;;;5093074;28;20475;-81
2021/08/14 03:46:05;;;;;;;6.90;5.70;;;23.00;99.90;;;;;;5092052;28;20477;-81
2021/08/14 03:48:33;;;;;;;9.97;6.03;;;23.00;99.90;;;;;;5093632;28;20449;-81
2021/08/14 03:51:01;;;;;;;6.47;5.30;;;23.00;99.90;;;;;;5092707;28;20446;-81
2021/08/14 03:53:31;;;;;;;6.70;5.67;;;22.90;99.90;;;;;;5075082;28;20473;-81
2021/08/14 03:55:59;;;;;;;7.03;5.07;;;22.90;99.90;;;;;;5092760;28;20493;-81
2021/08/14 03:58:32;;;;;;;6.60;5.90;;;22.90;99.90;;;;;;5093109;28;20444;-81
2021/08/14 04:01:00;;;;;;;7.43;5.90;;;22.90;99.90;;;;;;5091597;28;20490;-81
2021/08/14 04:03:30;;;;;;;12.83;6.00;;;22.90;99.90;;;;;;5092688;28;20480;-81
2021/08/14 04:05:59;;;;;;;8.43;5.10;;;22.90;99.90;;;;;;5091797;28;20551;-81
2021/08/14 04:08:27;;;;;;;8.67;5.17;;;22.80;99.90;;;;;;5093972;28;20486;-81
2021/08/14 04:10:55;;;;;;;7.17;5.60;;;22.80;99.90;;;;;;5072705;28;20468;-80
2021/08/14 04:13:24;;;;;;;8.27;6.13;;;22.70;99.90;;;;;;5091548;28;20515;-81
2021/08/14 04:15:52;;;;;;;7.93;7.17;;;22.80;99.90;;;;;;5091126;28;20449;-81
2021/08/14 04:18:20;;;;;;;6.47;5.87;;;22.80;99.90;;;;;;5092452;28;20625;-80
2021/08/14 04:20:50;;;;;;;6.40;5.70;;;22.80;99.90;;;;;;5073590;28;20998;-81
2021/08/14 04:23:18;;;;;;;10.67;5.90;;;22.80;1.00;;;;;;5093382;28;21298;-80
2021/08/14 04:25:49;;;;;;;7.60;5.87;;;22.70;1.00;;;;;;5091200;28;20505;-81
2021/08/14 04:28:17;;;;;;;6.33;5.70;;;22.80;1.00;;;;;;5092923;28;20884;-80
2021/08/14 04:30:45;;;;;;;6.80;5.43;;;22.70;1.00;;;;;;5091542;28;20531;-81
2021/08/14 04:33:13;;;;;;;9.17;6.30;;;22.70;1.00;;;;;;5092963;28;20475;-81
2021/08/14 04:35:41;;;;;;;5.10;4.60;;;22.70;1.00;;;;;;5092426;28;20433;-82
2021/08/14 04:38:11;;;;;;;5.80;5.13;;;22.70;1.00;;;;;;5092062;28;20445;-81
2021/08/14 04:40:39;;;;;;;5.53;4.93;;;22.70;1.00;;;;;;5091109;28;20452;-81
2021/08/14 04:43:07;;;;;;;6.87;5.67;;;22.70;1.00;;;;;;5092375;28;20472;-81
2021/08/14 04:45:35;;;;;;;6.17;5.60;;;22.70;1.00;;;;;;5081720;28;20965;-81
2021/08/14 04:48:03;;;;;;;5.90;5.07;;;22.70;1.00;;;;;;5072314;28;20442;-81
2021/08/14 04:50:32;;;;;;;5.50;5.00;;;22.60;1.00;;;;;;5070950;28;20516;-81
2021/08/14 04:53:00;;;;;;;6.00;5.40;;;22.70;1.00;;;;;;5072160;28;20454;-81
2021/08/14 04:55:29;;;;;;;6.83;5.90;;;22.60;1.00;;;;;;5053565;28;20435;-81
2021/08/14 04:57:57;;;;;;;7.40;5.70;;;22.60;1.00;;;;;;5072204;28;20964;-81
2021/08/14 05:00:25;;;;;;;5.70;5.13;;;22.70;1.00;;;;;;5070652;28;20504;-81
2021/08/14 05:02:53;;;;;;;9.20;6.00;;;22.60;1.00;;;;;;5071472;28;20505;-81
2021/08/14 05:05:22;;;;;;;6.90;6.07;;;22.60;1.00;;;;;;5070805;28;20581;-81
2021/08/14 05:07:50;;;;;;;6.77;6.07;;;22.70;1.00;;;;;;5072496;28;20461;-80
2021/08/14 05:10:18;;;;;;;7.77;6.97;;;22.70;1.00;;;;;;5070807;28;20449;-81
2021/08/14 05:12:48;;;;;;;5.80;5.30;;;22.60;1.00;;;;;;5073465;28;20461;-81
2021/08/14 05:15:17;;;;;;;8.60;6.07;;;22.70;1.00;;;;;;5092053;28;20437;-80
2021/08/14 05:17:47;;;;;;;6.47;5.87;;;22.60;1.00;;;;;;5091448;28;20934;-81
2021/08/14 05:20:15;;;;;;;6.37;5.77;;;22.60;1.00;;;;;;5103300;28;20942;-81
2021/08/14 05:22:43;;;;;;;7.33;5.50;;;22.70;1.00;;;;;;5091977;28;20461;-81
2021/08/14 05:25:11;;;;;;;6.07;5.47;;;22.70;1.00;;;;;;5092307;28;20437;-81
2021/08/14 05:27:39;;;;;;;5.70;5.20;;;22.70;1.00;;;;;;5073045;28;20456;-81
2021/08/14 05:30:10;;;;;;;7.23;6.37;;;22.70;1.00;;;;;;5091148;28;21147;-81
2021/08/14 05:32:38;;;;;;;7.70;5.53;;;22.80;1.00;;;;;;5093782;28;20462;-81
2021/08/14 05:35:07;;;;;;;6.40;5.40;;;23.00;1.00;;;;;;5077870;28;20810;-81
2021/08/14 05:37:35;;;;;;;6.73;6.10;;;22.80;1.00;;;;;;5095428;28;20441;-81
2021/08/14 05:40:04;;;;;;;6.63;5.20;;;22.90;1.00;;;;;;5096035;28;20448;-81
2021/08/14 05:42:32;;;;;;;7.37;6.53;;;22.90;1.00;;;;;;5095244;28;20457;-81
2021/08/14 05:45:00;;;;;;;7.40;6.60;;;22.90;1.00;;;;;;5090891;28;20458;-81
2021/08/14 05:47:30;;;;;;;10.63;6.20;;;22.90;1.00;;;;;;5065219;28;21362;-81
2021/08/14 05:49:58;;;;;;;6.83;6.20;;;23.00;1.00;;;;;;5096043;28;20434;-81
2021/08/14 05:52:26;;;;;;;9.73;5.93;;;23.00;1.00;;;;;;5095205;28;20464;-81
2021/08/14 05:54:54;;;;;;;6.87;6.17;;;23.10;1.00;;;;;;5096165;28;20837;-80
2021/08/14 05:57:22;;;;;;;5.70;5.20;;;23.10;1.00;;;;;;5077080;28;20985;-81
2021/08/14 05:59:50;;;;;;;6.73;6.03;;;23.10;1.00;;;;;;5095811;28;20433;-81
2021/08/14 06:02:18;;;;;;;6.40;5.67;;;23.10;1.00;;;;;;5094779;28;20461;-81
2021/08/14 06:04:48;;;;;;;6.10;5.20;;;23.20;1.00;;;;;;5095373;28;20441;-82
2021/08/14 06:07:16;;;;;;;9.63;6.87;;;23.30;1.00;;;;;;5094326;28;20875;-81
2021/08/14 06:09:44;;;;;;;8.90;7.70;;;23.30;1.00;;;;;;5095121;28;21022;-81
2021/08/14 06:12:13;;;;;;;7.13;6.40;;;23.30;1.00;;;;;;5092981;28;20470;-81
2021/08/14 06:14:41;;;;;;;6.20;5.30;;;23.30;1.00;;;;;;5095460;28;20456;-81
2021/08/14 06:17:09;;;;;;;6.33;5.73;;;23.30;1.00;;;;;;5094131;28;20430;-81
2021/08/14 06:19:37;;;;;;;6.83;6.07;;;23.30;1.00;;;;;;5094407;28;20494;-80
2021/08/14 06:22:07;;;;;;;8.20;5.67;;;23.30;1.00;;;;;;5093858;28;20474;-81
2021/08/14 06:24:35;;;;;;;6.97;6.10;;;23.40;1.00;;;;;;5077528;28;20775;-81
2021/08/14 06:27:03;;;;;;;7.93;6.00;;;23.50;1.00;;;;;;5093697;28;20487;-81
2021/08/14 06:29:31;;;;;;;9.10;5.50;;;23.70;1.00;;;;;;5094352;28;20448;-81
2021/08/14 06:31:59;;;;;;;5.70;5.20;;;24.00;1.00;;;;;;5093939;28;20461;-81
2021/08/14 06:34:27;;;;;;;7.70;6.13;;;24.20;99.90;;;;;;5095651;28;20499;-81
2021/08/14 06:36:56;;;;;;;7.00;5.03;;;24.30;99.90;;;;;;5094685;28;20805;-81
2021/08/14 06:39:25;;;;;;;5.97;5.37;;;24.50;99.90;;;;;;5094552;28;20442;-82
2021/08/14 06:41:53;;;;;;;7.60;5.73;;;24.60;99.90;;;;;;5093612;28;21022;-81
2021/08/14 06:44:21;;;;;;;6.90;5.80;;;24.80;99.90;;;;;;5095040;28;20509;-81
2021/08/14 06:46:52;;;;;;;6.27;5.50;;;24.90;99.90;;;;;;5073953;28;21252;-81
2021/08/14 06:49:20;;;;;;;5.40;4.50;;;25.10;99.90;;;;;;5074397;28;20513;-80
2021/08/14 06:51:48;;;;;;;4.83;4.43;;;25.30;99.90;;;;;;5073640;28;20856;-81
2021/08/14 06:54:16;;;;;;;6.43;5.27;;;25.40;99.90;;;;;;5075857;28;20433;-80
2021/08/14 06:56:46;;;;;;;6.20;5.40;;;25.50;99.90;;;;;;5075367;28;20552;-80
2021/08/14 06:59:14;;;;;;;5.90;5.23;;;25.60;99.90;;;;;;5094925;28;20514;-81
2021/08/14 07:01:42;;;;;;;5.07;4.67;;;25.70;99.90;;;;;;5094499;28;20458;-82
2021/08/14 07:04:11;;;;;;;7.30;5.40;;;25.90;99.90;;;;;;5095384;28;20528;-82
2021/08/14 07:06:39;;;;;;;6.10;5.00;;;26.00;99.90;;;;;;5075369;28;20470;-81
2021/08/14 07:09:07;;;;;;;6.80;5.67;;;26.10;99.90;;;;;;5094835;28;20503;-81
2021/08/14 07:11:35;;;;;;;5.67;4.80;;;26.20;99.90;;;;;;5092983;28;20831;-81
2021/08/14 07:14:04;;;;;;;5.80;5.20;;;26.30;99.90;;;;;;5076746;28;20856;-81
2021/08/14 07:16:33;;;;;;;5.47;5.00;;;26.40;99.90;;;;;;5094421;28;20521;-81
2021/08/14 07:19:01;;;;;;;4.77;4.17;;;26.50;99.90;;;;;;5095187;28;20446;-81
2021/08/14 07:21:29;;;;;;;6.80;5.93;;;26.70;99.90;;;;;;5094539;28;20941;-81
2021/08/14 07:23:57;;;;;;;5.07;4.67;;;26.80;99.90;;;;;;5095169;28;20460;-81
2021/08/14 07:26:26;;;;;;;5.80;5.30;;;26.90;99.90;;;;;;5094152;28;20864;-81
2021/08/14 07:28:54;;;;;;;6.00;5.20;;;27.10;99.90;;;;;;5094551;28;21032;-79
2021/08/14 07:31:23;;;;;;;5.60;5.10;;;27.30;99.90;;;;;;5094289;28;20438;-81
2021/08/14 07:33:52;;;;;;;5.40;4.90;;;27.30;99.90;;;;;;5094137;28;20476;-81
2021/08/14 07:36:20;;;;;;;5.10;4.50;;;27.60;99.90;;;;;;5093718;28;20445;-81
2021/08/14 07:38:48;;;;;;;8.40;6.40;;;27.50;99.90;;;;;;5094329;28;21001;-80
2021/08/14 07:41:16;;;;;;;7.43;6.63;;;27.70;99.90;;;;;;5093839;28;20882;-81
2021/08/14 07:43:44;;;;;;;6.67;5.40;;;27.70;99.90;;;;;;5094693;28;20457;-81
2021/08/14 07:46:12;;;;;;;6.27;5.30;;;27.80;99.90;;;;;;5085234;28;20998;-82
2021/08/14 07:48:42;;;;;;;5.43;5.03;;;27.80;99.90;;;;;;5093069;28;20481;-81
2021/08/14 07:51:10;;;;;;;5.50;4.97;;;27.80;99.90;;;;;;5093200;28;20787;-81
2021/08/14 07:53:38;;;;;;;5.30;4.80;;;27.70;99.90;;;;;;5092220;28;20985;-81
2021/08/14 07:56:06;;;;;;;5.53;5.00;;;27.70;99.90;;;;;;5092688;28;20484;-81
2021/08/14 07:58:34;;;;;;;6.80;5.60;;;27.70;99.90;;;;;;5075130;28;20454;-81
2021/08/14 08:01:03;;;;;;;7.30;6.60;;;27.60;99.90;;;;;;5074792;28;21006;-82
2021/08/14 08:03:31;;;;;;;6.80;5.33;;;27.60;99.90;;;;;;5092761;28;20548;-81
2021/08/14 08:06:04;;;;;;;5.63;5.03;;;27.50;99.90;;;;;;5093816;28;20442;-81
2021/08/14 08:08:34;;;;;;;6.07;5.33;;;27.50;99.90;;;;;;5093390;28;20473;-81
2021/08/14 08:11:03;;;;;;;5.07;4.60;;;27.50;99.90;;;;;;5092963;28;20849;-80
2021/08/14 08:13:31;;;;;;;4.73;4.33;;;27.50;99.90;;;;;;5093200;28;20461;-82
2021/08/14 08:15:59;;;;;;;5.63;5.13;;;27.50;99.90;;;;;;5093509;28;20518;-82
2021/08/14 08:18:27;;;;;;;5.13;4.70;;;27.50;99.90;;;;;;5092178;28;20473;-82
2021/08/14 08:20:55;;;;;;;6.27;5.67;;;27.50;99.90;;;;;;5093308;28;20479;-81
2021/08/14 08:23:25;;;;;;;5.97;5.37;;;27.50;99.90;;;;;;5093676;28;20915;-81
2021/08/14 08:25:53;;;;;;;4.90;4.33;;;27.50;99.90;;;;;;5097916;28;20896;-81
2021/08/14 08:28:21;;;;;;;5.60;5.07;;;27.50;99.90;;;;;;5104230;28;20468;-81
2021/08/14 08:30:50;;;;;;;5.60;5.00;;;27.50;99.90;;;;;;5114709;28;20453;-81
2021/08/14 08:33:18;;;;;;;5.60;5.10;;;27.50;99.90;;;;;;5113450;28;20503;-81
2021/08/14 08:35:46;;;;;;;5.53;3.40;;;27.50;99.90;;;;;;5114973;28;20508;-81
2021/08/14 08:38:14;;;;;;;4.20;3.77;;;27.50;99.90;;;;;;5097912;28;20754;-80
2021/08/14 08:40:44;;;;;;;4.57;4.17;;;27.50;99.90;;;;;;5093724;28;20436;-81
2021/08/14 08:43:12;;;;;;;5.77;5.07;;;27.60;99.90;;;;;;5092721;28;20464;-81
2021/08/14 08:45:41;;;;;;;6.03;4.40;;;27.60;99.90;;;;;;5094007;28;20457;-81
2021/08/14 08:48:10;;;;;;;4.57;4.17;;;27.60;99.90;;;;;;5092072;28;20469;-81
2021/08/14 08:50:39;;;;;;;4.97;4.57;;;27.70;99.90;;;;;;5092759;28;20521;-82
2021/08/14 08:53:07;;;;;;;5.03;4.60;;;27.70;99.90;;;;;;5091913;28;20446;-81
2021/08/14 08:55:37;;;;;;;4.77;4.33;;;27.70;99.90;;;;;;5093451;28;20442;-81
2021/08/14 08:58:06;;;;;;;7.53;5.57;;;27.80;99.90;;;;;;5092412;28;20797;-81
2021/08/14 09:00:34;;;;;;;5.60;5.10;;;27.80;99.90;;;;;;5074649;28;20799;-81
2021/08/14 09:03:09;;;;;;;5.13;4.67;;;27.80;99.90;;;;;;5092812;28;20465;-82
2021/08/14 09:05:52;;;;;;;4.63;4.30;;;27.80;99.90;;;;;;5094048;28;20956;-82
2021/08/14 09:08:21;;;;;;;4.73;4.33;;;27.80;99.90;;;;;;5073734;28;20499;-81
2021/08/14 09:10:50;;;;;;;6.03;5.03;;;27.80;99.90;;;;;;5093109;28;20449;-82
2021/08/14 09:13:21;;;;;;;5.43;4.93;;;27.90;99.90;;;;;;5090234;28;20484;-81
2021/08/14 09:15:50;;;;;;;5.47;4.97;;;27.90;99.90;;;;;;5075189;28;20522;-82
2021/08/14 09:18:19;;;;;;;4.80;4.40;;;27.90;99.90;;;;;;5092160;28;20472;-81
2021/08/14 09:20:52;;;;;;;5.33;4.83;;;28.00;99.90;;;;;;5092141;28;20438;-81
2021/08/14 09:23:22;;;;;;;4.90;4.40;;;28.00;99.90;;;;;;5091815;28;20461;-82
2021/08/14 09:25:52;;;;;;;6.60;6.00;;;28.00;99.90;;;;;;5092718;28;20794;-82
2021/08/14 09:28:30;;;;;;;7.43;5.40;;;28.00;99.90;;;;;;5093329;28;20873;-81
2021/08/14 09:31:00;;;;;;;5.10;4.60;;;28.10;99.90;;;;;;5092683;28;20540;-81
2021/08/14 09:33:30;;;;;;;6.30;4.60;;;28.10;99.90;;;;;;5093210;28;20462;-82
2021/08/14 09:36:00;;;;;;;5.70;4.70;;;28.10;99.90;;;;;;5093179;28;20445;-82
2021/08/14 09:38:41;;;;;;;5.03;4.53;;;28.10;99.90;;;;;;5093341;28;20530;-81
2021/08/14 09:41:11;;;;;;;5.50;5.03;;;28.20;99.90;;;;;;5093644;28;20438;-81
2021/08/14 09:43:42;;;;;;;5.73;5.33;;;28.20;99.90;;;;;;5095139;28;20510;-81
2021/08/14 09:46:10;;;;;;;5.53;5.03;;;28.20;99.90;;;;;;5091588;28;20528;-81
2021/08/14 09:48:39;;;;;;;5.27;4.87;;;28.30;99.90;;;;;;5092182;28;20458;-82
2021/08/14 09:51:27;;;;;;;4.60;4.20;;;28.30;99.90;;;;;;5091535;28;20450;-82
2021/08/14 09:53:55;;;;;;;6.63;4.97;;;28.40;99.90;;;;;;5093115;28;20986;-81
2021/08/14 09:56:26;;;;;;;5.17;4.70;;;28.40;99.90;;;;;;5092186;28;20437;-81
2021/08/14 09:58:55;;;;;;;5.77;5.17;;;28.40;99.90;;;;;;5092919;28;20441;-80
2021/08/14 10:01:24;;;;;;;6.23;4.90;;;28.40;99.90;;;;;;5091649;28;20453;-81
2021/08/14 10:03:53;;;;;;;4.63;4.23;;;28.50;99.90;;;;;;5092851;28;20494;-82
2021/08/14 10:06:21;;;;;;;5.30;4.80;;;28.50;99.90;;;;;;5092047;28;20446;-82
2021/08/14 10:08:50;;;;;;;4.97;4.50;;;28.60;99.90;;;;;;5092702;28;20504;-82
2021/08/14 10:11:19;;;;;;;6.33;4.37;;;28.60;99.90;;;;;;5090319;28;20465;-82
2021/08/14 10:13:47;;;;;;;7.10;5.20;;;28.50;99.90;;;;;;5091719;28;20446;-81
2021/08/14 10:16:18;;;;;;;5.23;4.83;;;28.50;99.90;;;;;;5092003;28;20552;-81
2021/08/14 10:18:52;;;;;;;6.63;5.30;;;28.50;99.90;;;;;;5093442;28;20778;-81
2021/08/14 10:21:24;;;;;;;6.37;5.77;;;28.50;99.90;;;;;;5095775;28;20448;-81
2021/08/14 10:23:56;;;;;;;5.53;5.03;;;28.50;99.90;;;;;;5096842;28;20441;-81
2021/08/14 10:26:28;;;;;;;5.73;5.07;;;28.60;99.90;;;;;;5077056;28;20729;-81
2021/08/14 10:28:58;;;;;;;5.03;4.60;;;28.60;99.90;;;;;;5076754;28;21016;-81
2021/08/14 10:31:47;;;;;;;6.03;4.70;;;28.70;99.90;;;;;;5077297;28;20469;-81
2021/08/14 10:34:30;;;;;;;5.00;4.60;;;28.70;99.90;;;;;;5076886;28;20449;-81
2021/08/14 10:36:58;;;;;;;5.07;4.67;;;28.80;99.90;;;;;;5096399;28;20518;-81
2021/08/14 10:39:28;;;;;;;4.83;4.37;;;28.80;99.90;;;;;;5094703;28;20457;-81
2021/08/14 10:41:58;;;;;;;5.37;4.93;;;28.80;99.90;;;;;;5077508;28;21016;-81
2021/08/14 10:44:41;;;;;;;6.77;5.10;;;28.80;99.90;;;;;;5076933;28;20454;-81
2021/08/14 10:47:45;;;;;;;5.87;4.40;;;28.90;99.90;;;;;;5096538;28;20460;-82
2021/08/14 10:50:55;;;;;;;5.37;4.10;;;28.90;99.90;;;;;;5094524;28;20467;-82
2021/08/14 10:53:24;;;;;;;4.13;3.73;;;28.80;99.90;;;;;;5095299;28;20509;-82
2021/08/14 10:55:54;;;;;;;6.07;4.37;;;28.90;99.90;;;;;;5095531;28;20503;-81
2021/08/14 10:58:25;;;;;;;5.67;5.10;;;28.80;99.90;;;;;;5095503;28;20524;-81
2021/08/14 11:00:54;;;;;;;4.57;4.17;;;28.90;99.90;;;;;;5076599;28;20446;-82
2021/08/14 11:03:32;;;;;;;5.13;4.60;;;29.00;99.90;;;;;;5075639;28;20549;-82
2021/08/14 11:06:25;;;;;;;5.43;4.77;;;29.10;99.90;;;;;;5094477;28;20851;-81
2021/08/14 11:09:32;;;;;;;4.70;4.30;;;29.00;99.90;;;;;;5074471;28;21016;-80
2021/08/14 11:12:01;;;;;;;5.87;5.13;;;29.10;99.90;;;;;;5072434;28;20462;-82
2021/08/14 11:14:40;;;;;;;5.17;4.67;;;29.10;99.90;;;;;;5072200;28;20496;-82
2021/08/14 11:17:09;;;;;;;5.60;5.10;;;29.20;99.90;;;;;;5072475;28;20427;-82
2021/08/14 11:19:51;;;;;;;7.70;5.20;;;29.20;99.90;;;;;;5071244;28;20430;-82
2021/08/14 11:22:31;;;;;;;5.20;4.60;;;29.20;99.90;;;;;;5072755;28;20521;-81
2021/08/14 11:25:03;;;;;;;5.73;5.23;;;29.10;99.90;;;;;;5072906;28;20926;-82
2021/08/14 11:27:33;;;;;;;5.10;4.70;;;29.20;99.90;;;;;;5080743;28;20449;-82
2021/08/14 11:30:04;;;;;;;5.13;3.90;;;29.20;99.90;;;;;;5090735;28;20878;-82
2021/08/14 11:32:33;;;;;;;5.57;5.07;;;29.20;99.90;;;;;;5093937;28;20479;-82
2021/08/14 11:35:05;;;;;;;6.47;4.70;;;29.30;99.90;;;;;;5073532;28;20977;-82
2021/08/14 11:37:49;;;;;;;5.83;4.57;;;29.30;99.90;;;;;;5091016;28;20446;-82
2021/08/14 11:40:21;;;;;;;6.33;4.80;;;29.30;99.90;;;;;;5091322;28;20488;-81
2021/08/14 11:42:57;;;;;;;5.90;5.23;;;29.30;99.90;;;;;;5072361;28;21275;-82
2021/08/14 11:45:26;;;;;;;5.20;4.80;;;29.50;99.90;;;;;;5092031;28;20449;-81
2021/08/14 11:47:59;;;;;;;5.57;5.07;;;29.50;99.90;;;;;;5091081;28;20491;-80
2021/08/14 11:50:34;;;;;;;6.33;4.50;;;29.50;99.90;;;;;;5092032;28;20473;-81
2021/08/14 11:53:03;;;;;;;5.73;5.13;;;29.50;99.90;;;;;;5091149;28;21170;-81
2021/08/14 11:55:32;;;;;;;7.10;5.10;;;29.40;99.90;;;;;;5092143;28;20434;-80
2021/08/14 11:58:00;;;;;;;7.13;5.10;;;29.40;99.90;;;;;;5090859;28;20507;-81
2021/08/14 12:00:30;;;;;;;5.73;5.13;;;29.50;99.90;;;;;;5091686;28;20441;-81
2021/08/14 12:03:07;;;;;;;4.40;4.00;;;29.40;99.90;;;;;;5090886;28;20470;-81
2021/08/14 12:05:37;;;;;;;5.70;5.20;;;29.50;99.90;;;;;;5091371;28;20442;-81
2021/08/14 12:08:07;;;;;;;5.00;4.50;;;29.50;99.90;;;;;;5072773;28;20442;-81
2021/08/14 12:10:36;;;;;;;5.33;4.90;;;29.60;99.90;;;;;;5091224;28;20469;-81
2021/08/14 12:13:05;;;;;;;4.47;4.17;;;29.60;99.90;;;;;;5089476;28;20511;-82
2021/08/14 12:16:08;;;;;;;5.80;5.00;;;29.60;99.90;;;;;;5090970;28;20520;-81
2021/08/14 12:18:37;;;;;;;4.77;4.33;;;29.50;99.90;;;;;;5091450;28;20503;-82
2021/08/14 12:21:07;;;;;;;5.20;4.70;;;29.60;99.90;;;;;;5092158;28;20438;-80
2021/08/14 12:23:37;;;;;;;5.77;5.27;;;29.60;99.90;;;;;;5092912;28;20470;-81
2021/08/14 12:26:08;;;;;;;5.90;4.80;;;29.60;99.90;;;;;;5074190;28;20744;-81
2021/08/14 12:28:38;;;;;;;5.27;4.87;;;29.70;99.90;;;;;;5093857;28;20442;-81
2021/08/14 12:31:17;;;;;;;7.70;5.40;;;29.70;99.90;;;;;;5092307;28;20846;-83
2021/08/14 12:33:52;;;;;;;5.30;4.90;;;29.70;99.90;;;;;;5093866;28;20461;-81
2021/08/14 12:36:35;;;;;;;5.40;4.90;;;29.80;99.90;;;;;;5092332;28;20486;-80
2021/08/14 12:39:04;;;;;;;4.90;4.50;;;29.80;99.90;;;;;;5075135;28;20463;-82
2021/08/14 12:41:37;;;;;;;4.80;4.40;;;29.90;99.90;;;;;;5091301;28;20535;-81
2021/08/14 12:44:06;;;;;;;5.07;4.27;;;29.90;99.90;;;;;;5093541;28;20450;-81
2021/08/14 12:46:34;;;;;;;7.30;5.50;;;30.00;99.90;;;;;;5091469;28;20446;-81
2021/08/14 12:49:19;;;;;;;5.47;4.80;;;30.10;99.90;;;;;;5093003;28;20630;-80
2021/08/14 12:52:02;;;;;;;5.10;4.70;;;30.10;99.90;;;;;;5092527;28;20896;-81
2021/08/14 12:54:31;;;;;;;5.53;4.77;;;30.10;99.90;;;;;;5093763;28;20446;-81
2021/08/14 12:57:03;;;;;;;5.40;5.00;;;30.10;99.90;;;;;;5092432;28;20481;-81
2021/08/14 12:59:31;;;;;;;5.87;4.57;;;30.10;99.90;;;;;;5093720;28;20956;-81
2021/08/14 13:02:03;;;;;;;5.13;4.70;;;30.10;99.90;;;;;;5074046;28;20469;-81